Time;durP1;ratioP1;P1;durP2;ratioP2;P2;SDS_P1;SDS_P2;PMS_P1;PMS_P2;Temp;Humidity;BMP_temperature;BMP_pressure;BME280_temperature;BME280_humidity;BME280_pressure;Samples;Min_cycle;Max_cycle;Signal;HPM_P1;HPM_P2
2022/11/02 00:00:20;;;;;;;;;;;;;;;7.32;47.03;95795.06;4998586;28;20402;-69
2022/11/02 00:02:45;;;;;;;;;;;;;;;7.32;47.19;95784.47;4997524;28;20044;-70
2022/11/02 00:05:11;;;;;;;;;;;;;;;7.44;46.47;95783.22;4998252;28;20009;-69
2022/11/02 00:07:36;;;;;;;;;;;;;;;7.31;46.61;95775.69;4997431;28;20504;-70
2022/11/02 00:10:02;;;;;;;;;;;;;;;7.54;46.77;95767.25;4998497;28;19973;-69
2022/11/02 00:12:27;;;;;;;;;;;;;;;7.04;48.11;95777.44;4998619;28;20401;-70
2022/11/02 00:14:52;;;;;;;;;;;;;;;7.45;47.30;95774.28;4997912;28;20418;-70
2022/11/02 00:17:17;;;;;;;;;;;;;;;7.67;46.05;95774.78;4998003;28;20032;-69
2022/11/02 00:19:43;;;;;;;;;;;;;;;7.82;46.38;95761.00;4998488;28;20079;-70
2022/11/02 00:22:08;;;;;;;;;;;;;;;7.97;45.65;95770.03;4997476;28;19997;-69
2022/11/02 00:24:33;;;;;;;;;;;;;;;7.95;45.64;95763.22;4998242;28;19966;-70
2022/11/02 00:26:58;;;;;;;;;;;;;;;8.11;45.29;95765.94;4997218;28;20287;-69
2022/11/02 00:29:24;;;;;;;;;;;;;;;8.01;45.10;95770.53;4997804;28;20049;-70
2022/11/02 00:31:49;;;;;;;;;;;;;;;8.05;45.22;95762.09;4996598;28;19993;-70
2022/11/02 00:34:14;;;;;;;;;;;;;;;7.86;45.78;95765.00;4997646;28;20037;-69
2022/11/02 00:36:40;;;;;;;;;;;;;;;7.64;46.21;95767.97;4997440;28;19970;-70
2022/11/02 00:39:05;;;;;;;;;;;;;;;7.69;46.24;95758.72;4997810;28;19994;-70
2022/11/02 00:41:30;;;;;;;;;;;;;;;7.97;45.66;95756.78;4996710;28;20510;-70
2022/11/02 00:43:55;;;;;;;;;;;;;;;8.16;45.78;95758.34;4998170;28;20002;-70
2022/11/02 00:46:21;;;;;;;;;;;;;;;8.15;46.06;95754.03;4996916;28;20036;-70
2022/11/02 00:48:46;;;;;;;;;;;;;;;8.15;44.91;95759.34;4998447;28;20079;-70
2022/11/02 00:51:11;;;;;;;;;;;;;;;8.06;46.18;95752.31;4992491;28;19997;-70
2022/11/02 00:53:36;;;;;;;;;;;;;;;8.27;45.74;95749.25;4979528;28;19976;-70
2022/11/02 00:56:02;;;;;;;;;;;;;;;8.25;45.44;95739.81;4979073;28;20140;-70
2022/11/02 00:58:27;;;;;;;;;;;;;;;8.35;44.86;95744.97;4978734;28;20029;-70
2022/11/02 01:00:52;;;;;;;;;;;;;;;7.96;46.15;95744.47;4980699;28;19978;-70
2022/11/02 01:03:17;;;;;;;;;;;;;;;7.33;47.31;95749.03;4979989;28;20376;-69
2022/11/02 01:05:42;;;;;;;;;;;;;;;7.38;47.53;95744.13;4980278;28;19977;-70
2022/11/02 01:08:08;;;;;;;;;;;;;;;7.51;47.46;95755.13;4979983;28;20051;-69
2022/11/02 01:10:33;;;;;;;;;;;;;;;7.92;46.45;95751.09;4980543;28;20056;-70
2022/11/02 01:12:59;;;;;;;;;;;;;;;8.14;46.45;95749.72;4979458;28;19981;-70
2022/11/02 01:15:24;;;;;;;;;;;;;;;8.28;45.82;95742.97;4980179;28;20001;-69
2022/11/02 01:17:50;;;;;;;;;;;;;;;7.50;48.76;95744.69;4979315;28;20734;-70
2022/11/02 01:20:15;;;;;;;;;;;;;;;7.92;46.59;95751.09;4978839;28;19977;-69
2022/11/02 01:22:40;;;;;;;;;;;;;;;8.35;45.51;95752.94;4979522;28;20116;-70
2022/11/02 01:25:06;;;;;;;;;;;;;;;8.04;46.13;95749.84;4979634;28;20509;-69
2022/11/02 01:27:32;;;;;;;;;;;;;;;8.24;45.82;95746.94;4979565;28;20033;-69
2022/11/02 01:29:57;;;;;;;;;;;;;;;8.13;46.10;95749.88;4980175;28;20288;-70
2022/11/02 01:32:22;;;;;;;;;;;;;;;8.21;45.83;95744.59;4978847;28;19974;-69
2022/11/02 01:34:47;;;;;;;;;;;;;;;8.36;45.41;95744.00;4979123;28;20465;-70
2022/11/02 01:37:12;;;;;;;;;;;;;;;8.15;46.26;95739.94;4979840;28;19970;-69
2022/11/02 01:39:38;;;;;;;;;;;;;;;8.24;45.51;95732.84;4978910;28;20463;-70
2022/11/02 01:42:03;;;;;;;;;;;;;;;8.12;46.78;95725.16;4979594;28;20038;-69
2022/11/02 01:44:28;;;;;;;;;;;;;;;8.02;46.76;95730.59;4980286;28;19970;-69
2022/11/02 01:46:55;;;;;;;;;;;;;;;7.44;50.50;95738.19;4976170;28;20093;-69
2022/11/02 01:49:20;;;;;;;;;;;;;;;8.00;46.83;95739.72;4979978;28;19981;-70
2022/11/02 01:51:56;;;;;;;;;;;;;;;8.27;46.42;95738.66;4988825;28;20258;-69
2022/11/02 01:54:23;;;;;;;;;;;;;;;8.40;45.97;95738.19;4980384;28;20083;-69
2022/11/02 01:56:49;;;;;;;;;;;;;;;8.50;45.65;95740.72;4976507;28;19974;-70
2022/11/02 01:59:16;;;;;;;;;;;;;;;8.60;45.25;95739.75;4974642;28;19994;-70
2022/11/02 02:01:41;;;;;;;;;;;;;;;8.47;45.82;95748.97;4999950;28;19970;-69
2022/11/02 02:04:06;;;;;;;;;;;;;;;8.68;45.06;95747.72;4999413;28;19985;-70
2022/11/02 02:06:31;;;;;;;;;;;;;;;8.34;46.20;95738.00;4975309;28;20139;-69
2022/11/02 02:08:58;;;;;;;;;;;;;;;8.55;46.04;95732.28;4998129;28;20505;-70
2022/11/02 02:11:27;;;;;;;;;;;;;;;8.85;44.90;95722.03;4978916;28;19982;-69
2022/11/02 02:14:12;;;;;;;;;;;;;;;8.73;47.08;95723.34;4978304;28;20032;-70
2022/11/02 02:16:50;;;;;;;;;;;;;;;8.85;46.29;95715.91;4996203;28;19977;-70
2022/11/02 02:19:18;;;;;;;;;;;;;;;8.88;46.33;95712.91;4994680;28;19993;-70
2022/11/02 02:21:51;;;;;;;;;;;;;;;9.05;44.92;95716.44;5002168;23;20485;-91
2022/11/02 02:24:23;;;;;;;;;;;;;;;8.68;46.41;95715.88;5007548;28;19998;-92
2022/11/02 02:27:07;;;;;;;;;;;;;;;9.09;45.07;95720.44;4981210;28;20018;-91
2022/11/02 02:29:35;;;;;;;;;;;;;;;9.16;45.50;95708.16;4982989;28;20428;-90
2022/11/02 02:32:05;;;;;;;;;;;;;;;9.24;44.35;95706.47;4997009;28;19993;-92
2022/11/02 02:34:51;;;;;;;;;;;;;;;9.32;44.07;95704.63;4952514;28;20061;-90
2022/11/02 02:37:17;;;;;;;;;;;;;;;9.21;44.64;95691.69;4952747;28;19974;-90
2022/11/02 02:39:44;;;;;;;;;;;;;;;9.30;44.60;95709.28;4966613;28;20100;-89
2022/11/02 02:42:19;;;;;;;;;;;;;;;9.14;46.67;95719.91;4964937;28;20021;-90
2022/11/02 02:45:04;;;;;;;;;;;;;;;9.24;44.63;95722.41;5015867;28;20448;-89
2022/11/02 02:47:30;;;;;;;;;;;;;;;9.13;45.00;95720.91;4976624;28;20510;-90
2022/11/02 02:49:57;;;;;;;;;;;;;;;9.01;45.41;95721.25;4982669;28;20010;-91
2022/11/02 02:52:24;;;;;;;;;;;;;;;8.40;47.04;95724.94;4966958;28;19970;-91
2022/11/02 02:54:49;;;;;;;;;;;;;;;8.43;46.38;95734.38;4974518;28;19999;-90
2022/11/02 02:57:18;;;;;;;;;;;;;;;9.00;45.16;95735.53;4999414;28;20005;-92
2022/11/02 02:59:45;;;;;;;;;;;;;;;9.06;44.91;95739.34;5018819;28;20481;-91
2022/11/02 03:02:23;;;;;;;;;;;;;;;9.38;44.09;95747.47;4989753;28;20410;-90
2022/11/02 03:04:48;;;;;;;;;;;;;;;9.38;44.53;95742.16;5022793;28;20092;-89
2022/11/02 03:07:19;;;;;;;;;;;;;;;9.13;45.06;95750.97;4993141;28;20043;-91
2022/11/02 03:09:48;;;;;;;;;;;;;;;9.36;44.31;95752.97;4992880;28;20009;-90
2022/11/02 03:12:32;;;;;;;;;;;;;;;9.51;44.02;95754.94;5009890;28;20001;-91
2022/11/02 03:15:09;;;;;;;;;;;;;;;9.57;44.65;95754.25;5002583;28;19997;-91
2022/11/02 03:17:41;;;;;;;;;;;;;;;9.08;45.33;95756.75;5012828;28;20473;-91
2022/11/02 03:20:24;;;;;;;;;;;;;;;8.66;46.16;95753.19;4996752;28;20043;-92
2022/11/02 03:23:02;;;;;;;;;;;;;;;8.71;46.37;95755.38;4997224;28;20036;-90
2022/11/02 03:25:45;;;;;;;;;;;;;;;6.91;50.85;95758.47;5010975;28;20008;-89
2022/11/02 03:28:13;;;;;;;;;;;;;;;7.84;50.54;95743.94;5032215;28;19989;-90
2022/11/02 03:30:41;;;;;;;;;;;;;;;7.51;50.71;95755.13;5013379;28;20364;-91
2022/11/02 03:33:07;;;;;;;;;;;;;;;8.08;49.47;95747.69;4992698;28;19973;-91
2022/11/02 03:36:02;;;;;;;;;;;;;;;7.53;50.36;95753.19;4998237;28;19998;-90
2022/11/02 03:38:47;;;;;;;;;;;;;;;8.29;49.27;95749.94;4967555;28;19994;-91
2022/11/02 03:41:13;;;;;;;;;;;;;;;7.90;49.97;95750.44;5013248;28;20360;-92
2022/11/02 03:43:38;;;;;;;;;;;;;;;7.42;51.59;95750.78;4994470;28;19990;-90
2022/11/02 03:46:04;;;;;;;;;;;;;;;7.09;52.08;95755.81;5011960;28;20444;-89
2022/11/02 03:48:31;;;;;;;;;;;;;;;6.50;54.10;95757.91;4996071;28;20553;-91
2022/11/02 03:50:57;;;;;;;;;;;;;;;7.96;49.74;95756.94;4994547;28;19990;-90
2022/11/02 03:53:28;;;;;;;;;;;;;;;7.60;50.60;95755.19;4996556;28;19966;-91
2022/11/02 03:55:54;;;;;;;;;;;;;;;8.16;49.23;95765.47;5006259;28;19993;-90
2022/11/02 03:58:20;;;;;;;;;;;;;;;8.54;48.01;95767.78;5009049;28;20489;-92
2022/11/02 04:00:55;;;;;;;;;;;;;;;8.29;48.65;95771.16;4989586;28;19989;-89
2022/11/02 04:03:20;;;;;;;;;;;;;;;8.39;48.43;95763.06;4994581;28;20088;-90
2022/11/02 04:05:46;;;;;;;;;;;;;;;6.75;52.75;95774.03;4984300;28;20064;-90
2022/11/02 04:08:23;;;;;;;;;;;;;;;5.97;54.82;95772.59;4992060;28;20017;-90
2022/11/02 04:16:17;;;;;;;;;;;;;;;7.27;52.56;95788.41;5004768;28;20000;-89
2022/11/02 04:21:26;;;;;;;;;;;;;;;7.36;51.71;95784.00;5010093;28;20055;-90
2022/11/02 04:26:35;;;;;;;;;;;;;;;7.01;52.51;95794.47;5009588;28;20035;-91
2022/11/02 04:29:00;;;;;;;;;;;;;;;5.97;55.62;95789.31;5032170;28;19974;-90
2022/11/02 04:31:26;;;;;;;;;;;;;;;6.33;54.42;95783.28;4995654;28;19988;-93
2022/11/02 04:33:52;;;;;;;;;;;;;;;6.06;55.45;95782.28;4991242;28;19970;-91
2022/11/02 04:36:18;;;;;;;;;;;;;;;5.42;58.04;95785.56;4982019;28;19990;-94
2022/11/02 04:38:43;;;;;;;;;;;;;;;5.88;56.37;95776.94;5011928;28;19993;-91
2022/11/02 04:43:53;;;;;;;;;;;;;;;6.92;52.89;95783.94;5013201;28;20391;-90
2022/11/02 04:46:19;;;;;;;;;;;;;;;7.25;51.86;95782.41;5014489;28;19985;-90
2022/11/02 04:48:44;;;;;;;;;;;;;;;6.36;54.14;95782.19;5014246;28;19976;-90
2022/11/02 04:51:09;;;;;;;;;;;;;;;6.03;55.44;95790.53;4999336;28;20033;-89
2022/11/02 04:53:34;;;;;;;;;;;;;;;6.25;54.77;95791.13;5016008;28;19984;-91
2022/11/02 04:56:00;;;;;;;;;;;;;;;6.51;53.87;95790.47;5015514;28;20362;-92
2022/11/02 04:58:25;;;;;;;;;;;;;;;6.43;54.56;95787.72;4996740;28;20064;-90
2022/11/02 05:00:50;;;;;;;;;;;;;;;6.49;54.38;95793.28;4990588;28;20054;-90
2022/11/02 05:03:15;;;;;;;;;;;;;;;5.04;59.18;95790.66;4987826;28;19997;-89
2022/11/02 05:05:41;;;;;;;;;;;;;;;6.50;54.36;95789.63;5011640;28;19974;-92
2022/11/02 05:08:06;;;;;;;;;;;;;;;6.47;54.06;95792.53;4996200;28;20021;-90
2022/11/02 05:10:31;;;;;;;;;;;;;;;6.90;52.38;95799.97;4991986;28;19985;-92
2022/11/02 05:12:57;;;;;;;;;;;;;;;7.08;52.10;95799.16;4992133;28;20001;-90
2022/11/02 05:15:22;;;;;;;;;;;;;;;6.56;53.54;95801.44;4992616;28;19998;-90
2022/11/02 05:17:47;;;;;;;;;;;;;;;6.53;53.80;95809.66;4990668;28;19974;-90
2022/11/02 05:20:14;;;;;;;;;;;;;;;6.39;54.32;95805.66;4975044;28;20300;-92
2022/11/02 05:22:42;;;;;;;;;;;;;;;6.03;55.69;95802.91;4980028;28;19988;-91
2022/11/02 05:25:08;;;;;;;;;;;;;;;6.43;54.40;95825.56;4977253;28;19978;-93
2022/11/02 05:27:34;;;;;;;;;;;;;;;6.37;54.27;95810.28;4991916;28;19994;-90
2022/11/02 05:29:59;;;;;;;;;;;;;;;6.16;55.19;95818.44;4974481;28;20020;-90
2022/11/02 05:32:25;;;;;;;;;;;;;;;6.01;55.31;95824.19;4992332;28;19977;-90
2022/11/02 05:34:50;;;;;;;;;;;;;;;6.18;55.32;95819.97;4990020;28;20001;-90
2022/11/02 05:37:16;;;;;;;;;;;;;;;6.43;54.92;95825.56;4994251;28;19976;-91
2022/11/02 05:39:41;;;;;;;;;;;;;;;5.67;56.62;95835.25;4990557;28;20021;-90
2022/11/02 05:42:06;;;;;;;;;;;;;;;6.52;54.61;95823.88;4984960;28;20047;-90
2022/11/02 05:44:32;;;;;;;;;;;;;;;6.71;53.90;95832.69;4992756;28;19974;-91
2022/11/02 05:46:57;;;;;;;;;;;;;;;6.52;54.37;95833.66;5000872;28;19989;-91
2022/11/02 05:49:22;;;;;;;;;;;;;;;6.87;53.20;95837.34;4994743;28;19973;-91
2022/11/02 05:51:48;;;;;;;;;;;;;;;6.64;54.05;95832.47;4986386;28;20083;-91
2022/11/02 05:54:13;;;;;;;;;;;;;;;6.92;53.39;95843.00;4990534;28;20005;-89
2022/11/02 05:56:38;;;;;;;;;;;;;;;6.60;54.13;95842.50;4977839;28;20015;-91
2022/11/02 05:59:03;;;;;;;;;;;;;;;6.09;55.65;95840.16;4978623;28;19989;-91
2022/11/02 06:01:29;;;;;;;;;;;;;;;6.56;54.67;95842.94;4987731;28;20068;-90
2022/11/02 06:03:54;;;;;;;;;;;;;;;5.86;56.12;95852.91;4988657;28;19994;-91
2022/11/02 06:06:19;;;;;;;;;;;;;;;6.44;54.73;95850.19;4983007;28;20464;-90
2022/11/02 06:08:44;;;;;;;;;;;;;;;6.59;54.02;95858.50;5015971;23;20315;-76
2022/11/02 06:11:10;;;;;;;;;;;;;;;6.45;54.76;95852.69;4954255;28;19998;-76
2022/11/02 06:13:35;;;;;;;;;;;;;;;6.83;53.32;95854.50;4956365;28;20415;-76
2022/11/02 06:16:01;;;;;;;;;;;;;;;7.04;52.56;95854.22;4956593;28;20002;-76
2022/11/02 06:18:26;;;;;;;;;;;;;;;7.17;52.62;95861.78;4942895;28;19994;-76
2022/11/02 06:20:52;;;;;;;;;;;;;;;7.09;52.39;95861.72;4957129;28;20049;-76
2022/11/02 06:23:17;;;;;;;;;;;;;;;6.44;54.19;95853.69;4962053;28;20007;-76
2022/11/02 06:25:43;;;;;;;;;;;;;;;6.85;53.32;95868.41;4940930;28;20099;-76
2022/11/02 06:28:08;;;;;;;;;;;;;;;6.60;53.75;95871.59;4940352;28;19986;-76
2022/11/02 06:30:34;;;;;;;;;;;;;;;6.82;53.15;95872.19;4942961;28;20346;-77
2022/11/02 06:32:59;;;;;;;;;;;;;;;6.56;53.60;95874.69;4942802;28;19978;-76
2022/11/02 06:35:24;;;;;;;;;;;;;;;6.61;53.68;95867.16;4935211;28;20434;-76
2022/11/02 06:37:49;;;;;;;;;;;;;;;7.10;52.31;95880.09;4944693;28;20161;-76
2022/11/02 06:40:15;;;;;;;;;;;;;;;7.07;52.12;95879.56;4935588;29;19962;-76
2022/11/02 06:42:40;;;;;;;;;;;;;;;6.79;52.82;95882.22;4944039;28;20033;-76
2022/11/02 06:45:06;;;;;;;;;;;;;;;6.91;52.82;95889.00;4936686;29;20428;-76
2022/11/02 06:47:31;;;;;;;;;;;;;;;7.06;52.18;95893.78;4943316;28;20478;-75
2022/11/02 06:49:57;;;;;;;;;;;;;;;7.17;52.20;95890.09;4960308;28;19975;-77
2022/11/02 06:52:22;;;;;;;;;;;;;;;6.36;54.71;95894.06;4944368;28;19994;-76
2022/11/02 06:54:47;;;;;;;;;;;;;;;6.77;53.60;95896.44;4946707;28;20464;-77
2022/11/02 06:57:12;;;;;;;;;;;;;;;7.21;51.98;95897.56;4943801;28;19974;-77
2022/11/02 06:59:38;;;;;;;;;;;;;;;7.09;52.28;95899.63;4944152;28;19994;-77
2022/11/02 07:02:03;;;;;;;;;;;;;;;7.26;51.48;95908.56;4942538;29;19971;-77
2022/11/02 07:04:28;;;;;;;;;;;;;;;7.46;51.42;95913.72;4946177;28;19979;-77
2022/11/02 07:06:53;;;;;;;;;;;;;;;7.32;51.72;95919.53;4942938;28;20198;-77
2022/11/02 07:09:19;;;;;;;;;;;;;;;7.46;51.14;95919.03;4935222;29;20464;-77
2022/11/02 07:11:44;;;;;;;;;;;;;;;7.31;51.83;95921.34;4943085;28;20378;-77
2022/11/02 07:14:09;;;;;;;;;;;;;;;7.30;52.16;95926.78;4943855;28;19979;-77
2022/11/02 07:16:34;;;;;;;;;;;;;;;7.19;52.20;95939.28;4943082;28;20041;-77
2022/11/02 07:19:00;;;;;;;;;;;;;;;7.06;52.43;95942.28;4943628;28;20061;-77
2022/11/02 07:21:25;;;;;;;;;;;;;;;7.06;52.92;95936.97;4929333;29;19974;-77
2022/11/02 07:23:50;;;;;;;;;;;;;;;6.49;53.81;95957.28;4928782;28;20053;-77
2022/11/02 07:26:15;;;;;;;;;;;;;;;6.28;55.52;95957.44;4941579;28;20006;-77
2022/11/02 07:28:40;;;;;;;;;;;;;;;6.68;54.15;95960.84;4932844;29;20219;-77
2022/11/02 07:31:06;;;;;;;;;;;;;;;7.03;53.51;95953.16;4942561;28;20457;-77
2022/11/02 07:33:31;;;;;;;;;;;;;;;6.38;55.16;95962.69;4943167;28;20018;-77
2022/11/02 07:35:56;;;;;;;;;;;;;;;6.13;55.83;95960.50;4943326;28;19994;-77
2022/11/02 07:38:21;;;;;;;;;;;;;;;6.38;55.48;95970.63;4942538;28;20154;-77
2022/11/02 07:40:47;;;;;;;;;;;;;;;6.31;55.58;95969.53;4942249;29;19979;-77
2022/11/02 07:43:12;;;;;;;;;;;;;;;6.44;55.52;95966.56;4928525;28;20037;-77
2022/11/02 07:45:37;;;;;;;;;;;;;;;6.36;55.69;95969.94;4942839;29;20556;-77
2022/11/02 07:48:03;;;;;;;;;;;;;;;6.22;55.98;95971.19;4943020;28;19999;-77
2022/11/02 07:50:28;;;;;;;;;;;;;;;6.10;56.52;95973.19;4941964;28;20049;-77
2022/11/02 07:52:54;;;;;;;;;;;;;;;6.76;54.59;95963.59;4939175;28;19998;-77
2022/11/02 07:55:20;;;;;;;;;;;;;;;5.64;57.91;95968.47;4940393;28;20332;-77
2022/11/02 07:57:54;;;;;;;;;;;;;;;6.35;55.50;95978.84;4941807;28;20095;-77
2022/11/02 08:00:20;;;;;;;;;;;;;;;6.66;54.92;95985.78;4924254;29;20616;-77
2022/11/02 08:02:45;;;;;;;;;;;;;;;7.00;54.00;95986.06;4926810;29;20072;-77
2022/11/02 08:05:10;;;;;;;;;;;;;;;7.44;52.46;95987.22;4926373;29;19975;-77
2022/11/02 08:07:36;;;;;;;;;;;;;;;6.87;53.67;95996.97;4926979;28;19987;-77
2022/11/02 08:10:01;;;;;;;;;;;;;;;6.39;55.13;95998.75;4941679;28;20042;-77
2022/11/02 08:12:26;;;;;;;;;;;;;;;6.10;55.57;96015.47;4940671;28;20371;-78
2022/11/02 08:14:52;;;;;;;;;;;;;;;6.02;56.59;96002.94;4942913;28;20006;-77
2022/11/02 08:17:17;;;;;;;;;;;;;;;6.08;56.16;95997.13;4940023;28;20161;-77
2022/11/02 08:19:42;;;;;;;;;;;;;;;6.01;56.83;96008.41;4922488;29;20451;-77
2022/11/02 08:22:07;;;;;;;;;;;;;;;6.71;54.49;96000.25;4940854;28;19994;-78
2022/11/02 08:24:33;;;;;;;;;;;;;;;6.44;54.77;96009.75;4940996;28;20002;-77
2022/11/02 08:26:58;;;;;;;;;;;;;;;5.78;56.81;96003.38;4939420;28;19994;-78
2022/11/02 08:29:23;;;;;;;;;;;;;;;6.01;56.95;96013.69;4941679;28;19979;-77
2022/11/02 08:31:48;;;;;;;;;;;;;;;6.55;55.34;96011.41;4940309;28;20366;-77
2022/11/02 08:34:14;;;;;;;;;;;;;;;6.31;55.04;96009.19;4940611;28;19998;-77
2022/11/02 08:36:39;;;;;;;;;;;;;;;6.62;54.25;96019.59;4938866;28;19999;-77
2022/11/02 08:39:04;;;;;;;;;;;;;;;6.95;53.53;96024.53;4939201;28;19986;-77
2022/11/02 08:41:29;;;;;;;;;;;;;;;6.56;53.20;96014.91;4926214;29;20006;-77
2022/11/02 08:43:56;;;;;;;;;;;;;;;6.33;54.82;96016.00;4941029;28;19999;-77
2022/11/02 08:46:22;;;;;;;;;;;;;;;6.60;53.70;96024.22;4941854;28;19991;-78
2022/11/02 08:48:47;;;;;;;;;;;;;;;6.50;54.59;96017.13;4940616;28;19971;-77
2022/11/02 08:51:12;;;;;;;;;;;;;;;6.59;53.96;96012.78;4940970;28;20239;-77
2022/11/02 08:53:37;;;;;;;;;;;;;;;6.61;54.15;96018.78;4940776;28;20014;-77
2022/11/02 08:56:03;;;;;;;;;;;;;;;6.48;54.47;96053.47;4942605;28;19999;-77
2022/11/02 08:58:28;;;;;;;;;;;;;;;6.19;54.98;96033.13;4941495;28;20189;-77
2022/11/02 09:00:53;;;;;;;;;;;;;;;6.68;52.77;96044.66;4941910;28;20422;-77
2022/11/02 09:03:20;;;;;;;;;;;;;;;5.89;54.86;96034.97;4927910;29;20061;-78
2022/11/02 09:05:45;;;;;;;;;;;;;;;6.61;54.31;96032.03;4942312;28;20312;-77
2022/11/02 09:08:15;;;;;;;;;;;;;;;6.94;52.25;96034.28;4927311;29;20005;-77
2022/11/02 09:10:40;;;;;;;;;;;;;;;6.34;52.71;96040.66;4920862;29;20074;-77
2022/11/02 09:13:06;;;;;;;;;;;;;;;6.36;54.11;96044.81;4941368;28;20502;-77
2022/11/02 09:15:32;;;;;;;;;;;;;;;6.63;52.68;96034.50;4924928;28;19995;-77
2022/11/02 09:17:57;;;;;;;;;;;;;;;7.19;51.83;96041.72;4926742;28;20018;-77
2022/11/02 09:20:22;;;;;;;;;;;;;;;7.05;51.53;96041.22;4941357;28;20070;-77
2022/11/02 09:22:48;;;;;;;;;;;;;;;7.37;50.72;96041.75;4928015;29;20005;-77
2022/11/02 09:25:13;;;;;;;;;;;;;;;6.76;51.52;96045.63;4940806;28;20479;-77
2022/11/02 09:27:39;;;;;;;;;;;;;;;7.60;50.58;96038.72;4928970;28;20590;-77
2022/11/02 09:30:04;;;;;;;;;;;;;;;7.25;50.24;96057.84;4928315;28;19971;-77
2022/11/02 09:32:33;;;;;;;;;;;;;;;7.09;50.90;96037.31;4935280;28;19974;-77
2022/11/02 09:34:59;;;;;;;;;;;;;;;7.61;50.59;96046.53;4941106;28;20409;-78
2022/11/02 09:37:25;;;;;;;;;;;;;;;7.91;49.56;96056.97;4941785;29;20654;-78
2022/11/02 09:39:50;;;;;;;;;;;;;;;7.20;50.70;96060.09;4940957;28;19991;-78
2022/11/02 09:42:18;;;;;;;;;;;;;;;7.69;49.56;96068.81;4926941;28;20490;-78
2022/11/02 09:44:46;;;;;;;;;;;;;;;7.41;49.78;96072.28;4924608;29;20073;-77
2022/11/02 09:47:11;;;;;;;;;;;;;;;7.66;48.54;96073.41;4940918;28;19994;-77
2022/11/02 09:49:37;;;;;;;;;;;;;;;7.38;50.85;96080.53;4931727;28;19994;-77
2022/11/02 09:52:02;;;;;;;;;;;;;;;7.83;50.25;96070.13;4927243;28;19994;-77
2022/11/02 09:54:34;;;;;;;;;;;;;;;8.32;47.09;96085.69;4944870;28;19995;-77
2022/11/02 09:57:01;;;;;;;;;;;;;;;7.17;49.73;96092.16;4942012;28;20150;-77
2022/11/02 09:59:26;;;;;;;;;;;;;;;7.25;47.98;96094.09;4928471;28;20365;-77
2022/11/02 10:02:10;;;;;;;;;;;;;;;7.53;49.12;96104.72;4940135;28;20018;-77
2022/11/02 10:04:44;;;;;;;;;;;;;;;7.35;48.75;96104.66;4956505;28;19993;-77
2022/11/02 10:07:18;;;;;;;;;;;;;;;7.58;48.25;96089.22;4941841;28;20117;-77
2022/11/02 10:09:59;;;;;;;;;;;;;;;7.99;47.22;96088.03;4939151;28;19998;-77
2022/11/02 10:12:25;;;;;;;;;;;;;;;8.72;46.73;96091.50;4940348;28;20007;-78
2022/11/02 10:14:53;;;;;;;;;;;;;;;8.09;48.11;96103.88;4940923;28;20456;-78
2022/11/02 10:17:18;;;;;;;;;;;;;;;8.01;48.27;96110.78;4927335;28;20439;-73
2022/11/02 10:19:45;;;;;;;;;;;;;;;7.37;47.06;96119.44;4940324;28;20013;-77
2022/11/02 10:22:11;;;;;;;;;;;;;;;6.90;48.39;96096.41;4939943;28;20146;-77
2022/11/02 10:24:41;;;;;;;;;;;;;;;7.60;47.63;96097.00;4940095;28;19971;-77
2022/11/02 10:27:11;;;;;;;;;;;;;;;7.10;49.67;96088.44;4938667;28;20230;-78
2022/11/02 10:29:42;;;;;;;;;;;;;;;7.64;47.44;96099.22;4927063;28;20416;-78
2022/11/02 10:32:11;;;;;;;;;;;;;;;8.26;46.42;96095.09;4939187;28;19995;-77
2022/11/02 10:34:36;;;;;;;;;;;;;;;8.56;45.17;96101.00;4942277;28;20497;-77
2022/11/02 10:37:20;;;;;;;;;;;;;;;8.60;46.17;96108.66;4929228;28;19975;-77
2022/11/02 10:39:49;;;;;;;;;;;;;;;9.05;43.43;96105.00;4940697;28;20518;-77
2022/11/02 10:42:14;;;;;;;;;;;;;;;8.82;43.86;96108.19;4956753;28;20033;-77
2022/11/02 10:44:58;;;;;;;;;;;;;;;9.13;43.90;96104.25;4940306;28;19979;-77
2022/11/02 10:47:24;;;;;;;;;;;;;;;8.87;44.37;96104.22;4937542;28;20026;-77
2022/11/02 10:49:58;;;;;;;;;;;;;;;9.64;43.20;96100.00;4944694;28;19993;-77
2022/11/02 10:52:24;;;;;;;;;;;;;;;9.48;43.05;96106.91;4958135;28;20417;-77
2022/11/02 10:54:49;;;;;;;;;;;;;;;9.89;42.13;96103.56;4939832;28;20043;-78
2022/11/02 10:57:17;;;;;;;;;;;;;;;9.67;41.64;96113.81;4939585;28;20475;-77
2022/11/02 10:59:42;;;;;;;;;;;;;;;9.08;40.94;96102.06;4925362;28;19999;-77
2022/11/02 11:02:12;;;;;;;;;;;;;;;8.74;41.97;96105.44;4942575;28;19993;-77
2022/11/02 11:04:37;;;;;;;;;;;;;;;8.70;40.70;96101.41;4940291;28;20026;-78
2022/11/02 11:07:06;;;;;;;;;;;;;;;9.57;40.57;96087.38;4940567;28;20426;-77
2022/11/02 11:09:37;;;;;;;;;;;;;;;9.70;39.75;96088.72;4920884;28;19991;-77
2022/11/02 11:12:02;;;;;;;;;;;;;;;9.42;37.92;96100.41;4922723;29;20005;-77
2022/11/02 11:14:47;;;;;;;;;;;;;;;8.46;38.99;96092.28;4943447;28;19995;-77
2022/11/02 11:17:13;;;;;;;;;;;;;;;8.86;38.49;96091.91;4930028;29;19982;-78
2022/11/02 11:19:39;;;;;;;;;;;;;;;9.01;37.86;96098.34;4943306;28;19995;-78
2022/11/02 11:22:22;;;;;;;;;;;;;;;8.76;37.90;96103.47;4929955;28;20030;-77
2022/11/02 11:24:47;;;;;;;;;;;;;;;8.96;37.73;96111.28;4942730;28;19974;-78
2022/11/02 11:27:22;;;;;;;;;;;;;;;8.98;38.37;96097.84;4929851;28;19991;-77
2022/11/02 11:29:48;;;;;;;;;;;;;;;9.35;38.45;96106.53;4929306;29;19978;-77
2022/11/02 11:32:17;;;;;;;;;;;;;;;9.21;37.62;96108.75;4933713;28;20647;-78
2022/11/02 11:34:44;;;;;;;;;;;;;;;9.16;37.99;96103.09;4943168;28;20053;-77
2022/11/02 11:37:10;;;;;;;;;;;;;;;9.25;38.01;96102.13;4934264;28;19971;-77
2022/11/02 11:39:35;;;;;;;;;;;;;;;9.54;37.50;96106.28;4929783;29;20385;-77
2022/11/02 11:42:01;;;;;;;;;;;;;;;9.82;37.11;96097.22;4931330;28;20097;-78
2022/11/02 11:44:26;;;;;;;;;;;;;;;9.07;37.84;96104.84;4928314;29;20056;-78
2022/11/02 11:46:53;;;;;;;;;;;;;;;9.92;37.36;96091.78;4942102;28;19998;-78
2022/11/02 11:49:26;;;;;;;;;;;;;;;9.72;36.85;96102.69;4950617;28;19985;-78
2022/11/02 11:51:51;;;;;;;;;;;;;;;9.36;37.64;96108.19;4953354;28;20060;-78
2022/11/02 11:54:22;;;;;;;;;;;;;;;10.00;37.41;96097.13;4925257;28;20489;-78
2022/11/02 11:56:48;;;;;;;;;;;;;;;9.52;37.96;96116.22;4924969;28;20339;-77
2022/11/02 11:59:30;;;;;;;;;;;;;;;9.78;37.43;96102.06;4924958;29;20001;-73
2022/11/02 12:01:59;;;;;;;;;;;;;;;10.90;33.78;96101.88;4939827;28;20017;-73
2022/11/02 12:04:26;;;;;;;;;;;;;;;10.15;35.16;96089.38;4926697;29;19971;-73
2022/11/02 12:06:53;;;;;;;;;;;;;;;9.90;37.40;96099.94;4940932;28;20489;-73
2022/11/02 12:09:24;;;;;;;;;;;;;;;9.36;38.11;96102.88;4940951;28;20034;-74
2022/11/02 12:12:09;;;;;;;;;;;;;;;9.94;37.25;96087.13;4940219;28;19987;-73
2022/11/02 12:14:40;;;;;;;;;;;;;;;10.08;35.99;96091.03;4940943;28;19986;-73
2022/11/02 12:17:06;;;;;;;;;;;;;;;10.51;36.11;96101.56;4940252;28;19982;-72
2022/11/02 12:19:31;;;;;;;;;;;;;;;10.29;36.65;96101.22;4941829;28;19987;-73
2022/11/02 12:22:15;;;;;;;;;;;;;;;11.63;33.13;96094.72;4940478;28;20069;-74
2022/11/02 12:24:49;;;;;;;;;;;;;;;14.22;30.05;96087.94;4941959;28;20184;-73
2022/11/02 12:27:14;;;;;;;;;;;;;;;14.90;29.33;96096.63;4925887;28;20024;-74
2022/11/02 12:29:46;;;;;;;;;;;;;;;12.67;32.62;96076.78;4944182;28;20033;-73
2022/11/02 12:32:11;;;;;;;;;;;;;;;10.66;35.68;96084.91;4928675;28;20006;-73
2022/11/02 12:34:36;;;;;;;;;;;;;;;11.45;34.93;96076.28;4940632;28;20057;-72
2022/11/02 12:37:11;;;;;;;;;;;;;;;12.65;33.22;96076.09;4942492;28;20487;-72
2022/11/02 12:39:36;;;;;;;;;;;;;;;13.00;32.11;96086.38;4923547;28;19990;-73
2022/11/02 12:42:10;;;;;;;;;;;;;;;12.96;32.66;96081.53;4939316;29;19979;-73
2022/11/02 12:44:51;;;;;;;;;;;;;;;12.83;32.31;96069.63;4928663;28;20518;-73
2022/11/02 12:47:26;;;;;;;;;;;;;;;14.71;30.07;96067.59;4926448;29;20026;-73
2022/11/02 12:50:09;;;;;;;;;;;;;;;18.47;25.13;96057.66;4940180;28;19978;-74
2022/11/02 12:52:40;;;;;;;;;;;;;;;16.64;26.84;96066.25;4941740;28;19973;-74
2022/11/02 12:55:08;;;;;;;;;;;;;;;18.15;24.69;96061.16;4940964;28;20093;-74
2022/11/02 12:57:34;;;;;;;;;;;;;;;17.91;24.94;96065.41;4925544;29;20166;-79
2022/11/02 13:00:05;;;;;;;;;;;;;;;16.61;26.74;96071.19;4925933;29;20386;-78
2022/11/02 13:02:40;;;;;;;;;;;;;;;14.25;30.13;96084.06;4943780;28;20475;-78
2022/11/02 13:05:11;;;;;;;;;;;;;;;13.47;31.44;96080.03;4939777;28;19978;-78
2022/11/02 13:07:38;;;;;;;;;;;;;;;13.10;31.14;96066.56;4926117;28;20502;-78
2022/11/02 13:10:04;;;;;;;;;;;;;;;14.99;28.92;96060.59;4925677;28;20360;-78